sensor_id;sensor_type;location;lat;lon;timestamp;temperature;humidity
10388;DHT22;5240;51.128;4.566;2023-03-02T00:01:40;1.70;99.90
10388;DHT22;5240;51.128;4.566;2023-03-02T00:04:12;1.70;99.90
10388;DHT22;5240;51.128;4.566;2023-03-02T00:06:40;1.60;99.90
10388;DHT22;5240;51.128;4.566;2023-03-02T00:09:07;1.50;99.90
10388;DHT22;5240;51.128;4.566;2023-03-02T00:11:36;1.50;99.90
10388;DHT22;5240;51.128;4.566;2023-03-02T00:14:03;1.50;99.90
10388;DHT22;5240;51.128;4.566;2023-03-02T00:16:31;1.40;99.90
10388;DHT22;5240;51.128;4.566;2023-03-02T00:18:58;1.40;99.90
10388;DHT22;5240;51.128;4.566;2023-03-02T00:21:26;1.40;99.90
10388;DHT22;5240;51.128;4.566;2023-03-02T00:23:53;1.40;99.90
10388;DHT22;5240;51.128;4.566;2023-03-02T00:26:20;1.30;99.90
10388;DHT22;5240;51.128;4.566;2023-03-02T00:28:47;1.30;99.90
10388;DHT22;5240;51.128;4.566;2023-03-02T00:31:14;1.30;99.90
10388;DHT22;5240;51.128;4.566;2023-03-02T00:33:42;1.30;99.90
10388;DHT22;5240;51.128;4.566;2023-03-02T00:36:14;1.20;99.90
10388;DHT22;5240;51.128;4.566;2023-03-02T00:38:43;1.20;99.90
10388;DHT22;5240;51.128;4.566;2023-03-02T00:41:11;1.20;99.90
10388;DHT22;5240;51.128;4.566;2023-03-02T00:43:38;1.20;99.90
10388;DHT22;5240;51.128;4.566;2023-03-02T00:46:09;1.10;99.90
10388;DHT22;5240;51.128;4.566;2023-03-02T00:48:37;1.10;99.90
10388;DHT22;5240;51.128;4.566;2023-03-02T00:51:04;1.10;99.90
10388;DHT22;5240;51.128;4.566;2023-03-02T00:53:31;1.00;99.90
10388;DHT22;5240;51.128;4.566;2023-03-02T00:56:00;1.00;99.90
10388;DHT22;5240;51.128;4.566;2023-03-02T00:58:28;1.00;99.90
10388;DHT22;5240;51.128;4.566;2023-03-02T01:00:56;1.00;99.90
10388;DHT22;5240;51.128;4.566;2023-03-02T01:03:23;1.00;99.90
10388;DHT22;5240;51.128;4.566;2023-03-02T01:05:50;1.00;99.90
10388;DHT22;5240;51.128;4.566;2023-03-02T01:08:21;1.00;99.90
10388;DHT22;5240;51.128;4.566;2023-03-02T01:10:49;0.90;99.90
10388;DHT22;5240;51.128;4.566;2023-03-02T01:13:18;1.00;99.90
10388;DHT22;5240;51.128;4.566;2023-03-02T01:15:45;1.00;99.90
10388;DHT22;5240;51.128;4.566;2023-03-02T01:18:13;1.00;99.90
10388;DHT22;5240;51.128;4.566;2023-03-02T01:20:40;0.90;99.90
10388;DHT22;5240;51.128;4.566;2023-03-02T01:23:07;0.90;99.90
10388;DHT22;5240;51.128;4.566;2023-03-02T01:25:34;0.90;99.90
10388;DHT22;5240;51.128;4.566;2023-03-02T01:28:03;0.80;99.90
10388;DHT22;5240;51.128;4.566;2023-03-02T01:30:32;0.80;99.90
10388;DHT22;5240;51.128;4.566;2023-03-02T01:32:59;0.80;99.90
10388;DHT22;5240;51.128;4.566;2023-03-02T01:35:26;0.80;99.90
10388;DHT22;5240;51.128;4.566;2023-03-02T01:37:53;0.80;99.90
10388;DHT22;5240;51.128;4.566;2023-03-02T01:40:20;0.80;99.90
10388;DHT22;5240;51.128;4.566;2023-03-02T01:42:52;0.80;99.90
10388;DHT22;5240;51.128;4.566;2023-03-02T01:45:55;0.70;99.90
10388;DHT22;5240;51.128;4.566;2023-03-02T01:48:27;0.70;99.90
10388;DHT22;5240;51.128;4.566;2023-03-02T01:50:55;0.60;99.90
10388;DHT22;5240;51.128;4.566;2023-03-02T01:53:25;0.70;99.90
10388;DHT22;5240;51.128;4.566;2023-03-02T01:55:53;0.70;99.90
10388;DHT22;5240;51.128;4.566;2023-03-02T01:58:21;0.60;99.90
10388;DHT22;5240;51.128;4.566;2023-03-02T02:00:48;0.60;99.90
10388;DHT22;5240;51.128;4.566;2023-03-02T02:03:22;0.50;99.90
10388;DHT22;5240;51.128;4.566;2023-03-02T02:05:59;0.60;99.90
10388;DHT22;5240;51.128;4.566;2023-03-02T02:08:27;0.60;99.90
10388;DHT22;5240;51.128;4.566;2023-03-02T02:10:54;0.60;99.90
10388;DHT22;5240;51.128;4.566;2023-03-02T02:13:22;0.60;99.90
10388;DHT22;5240;51.128;4.566;2023-03-02T02:15:49;0.50;99.90
10388;DHT22;5240;51.128;4.566;2023-03-02T02:18:18;0.50;99.90
10388;DHT22;5240;51.128;4.566;2023-03-02T02:20:46;0.40;99.90
10388;DHT22;5240;51.128;4.566;2023-03-02T02:23:25;0.40;99.90
10388;DHT22;5240;51.128;4.566;2023-03-02T02:26:06;0.40;99.90
10388;DHT22;5240;51.128;4.566;2023-03-02T02:28:39;0.40;99.90
10388;DHT22;5240;51.128;4.566;2023-03-02T02:31:12;0.40;99.90
10388;DHT22;5240;51.128;4.566;2023-03-02T02:33:42;0.40;99.90
10388;DHT22;5240;51.128;4.566;2023-03-02T02:36:14;0.40;99.90
10388;DHT22;5240;51.128;4.566;2023-03-02T02:38:44;0.40;99.90
10388;DHT22;5240;51.128;4.566;2023-03-02T02:41:18;0.40;99.90
10388;DHT22;5240;51.128;4.566;2023-03-02T02:43:46;0.40;99.90
10388;DHT22;5240;51.128;4.566;2023-03-02T02:46:14;0.40;99.90
10388;DHT22;5240;51.128;4.566;2023-03-02T02:48:41;0.30;99.90
10388;DHT22;5240;51.128;4.566;2023-03-02T02:51:13;0.30;99.90
10388;DHT22;5240;51.128;4.566;2023-03-02T02:53:47;0.30;99.90
10388;DHT22;5240;51.128;4.566;2023-03-02T02:56:17;0.30;99.90
10388;DHT22;5240;51.128;4.566;2023-03-02T02:58:46;0.30;99.90
10388;DHT22;5240;51.128;4.566;2023-03-02T03:01:17;0.30;99.90
10388;DHT22;5240;51.128;4.566;2023-03-02T03:03:51;0.20;99.90
10388;DHT22;5240;51.128;4.566;2023-03-02T03:06:23;0.20;99.90
10388;DHT22;5240;51.128;4.566;2023-03-02T03:08:57;0.30;99.90
10388;DHT22;5240;51.128;4.566;2023-03-02T03:11:27;0.20;99.90
10388;DHT22;5240;51.128;4.566;2023-03-02T03:13:59;0.10;99.90
10388;DHT22;5240;51.128;4.566;2023-03-02T03:16:29;0.20;99.90
10388;DHT22;5240;51.128;4.566;2023-03-02T03:19:01;0.20;99.90
10388;DHT22;5240;51.128;4.566;2023-03-02T03:21:30;0.20;99.90
10388;DHT22;5240;51.128;4.566;2023-03-02T03:23:57;0.20;99.90
10388;DHT22;5240;51.128;4.566;2023-03-02T03:26:25;0.20;99.90
10388;DHT22;5240;51.128;4.566;2023-03-02T03:28:52;0.20;99.90
10388;DHT22;5240;51.128;4.566;2023-03-02T03:31:22;0.20;99.90
10388;DHT22;5240;51.128;4.566;2023-03-02T03:33:49;0.20;99.90
10388;DHT22;5240;51.128;4.566;2023-03-02T03:36:16;0.20;99.90
10388;DHT22;5240;51.128;4.566;2023-03-02T03:38:44;0.20;99.90
10388;DHT22;5240;51.128;4.566;2023-03-02T03:41:11;0.20;99.90
10388;DHT22;5240;51.128;4.566;2023-03-02T03:43:40;0.20;99.90
10388;DHT22;5240;51.128;4.566;2023-03-02T03:46:07;0.10;99.90
10388;DHT22;5240;51.128;4.566;2023-03-02T03:48:34;0.10;99.90
10388;DHT22;5240;51.128;4.566;2023-03-02T03:51:01;0.10;99.90
10388;DHT22;5240;51.128;4.566;2023-03-02T03:53:28;0.10;99.90
10388;DHT22;5240;51.128;4.566;2023-03-02T03:55:55;0.10;99.90
10388;DHT22;5240;51.128;4.566;2023-03-02T03:58:23;0.00;99.90
10388;DHT22;5240;51.128;4.566;2023-03-02T04:00:52;0.00;99.90
10388;DHT22;5240;51.128;4.566;2023-03-02T04:03:19;0.00;99.90
10388;DHT22;5240;51.128;4.566;2023-03-02T04:05:47;0.00;99.90
10388;DHT22;5240;51.128;4.566;2023-03-02T04:08:14;-0.10;99.90
10388;DHT22;5240;51.128;4.566;2023-03-02T04:10:41;0.00;99.90
10388;DHT22;5240;51.128;4.566;2023-03-02T04:13:08;-0.10;99.90
10388;DHT22;5240;51.128;4.566;2023-03-02T04:15:35;0.00;99.90
10388;DHT22;5240;51.128;4.566;2023-03-02T04:18:04;-0.10;99.90
10388;DHT22;5240;51.128;4.566;2023-03-02T04:20:31;0.00;99.90
10388;DHT22;5240;51.128;4.566;2023-03-02T04:22:58;-0.10;99.90
10388;DHT22;5240;51.128;4.566;2023-03-02T04:25:27;0.00;99.90
10388;DHT22;5240;51.128;4.566;2023-03-02T04:27:54;-0.10;99.90
10388;DHT22;5240;51.128;4.566;2023-03-02T04:30:24;-0.10;99.90
10388;DHT22;5240;51.128;4.566;2023-03-02T04:32:51;-0.10;99.90
10388;DHT22;5240;51.128;4.566;2023-03-02T04:35:20;-0.10;99.90
10388;DHT22;5240;51.128;4.566;2023-03-02T04:37:47;0.00;99.90
10388;DHT22;5240;51.128;4.566;2023-03-02T04:40:15;0.00;99.90
10388;DHT22;5240;51.128;4.566;2023-03-02T04:42:43;-0.10;99.90
10388;DHT22;5240;51.128;4.566;2023-03-02T04:45:11;0.00;99.90
10388;DHT22;5240;51.128;4.566;2023-03-02T04:47:39;-0.10;99.90
10388;DHT22;5240;51.128;4.566;2023-03-02T04:50:07;-0.10;99.90
10388;DHT22;5240;51.128;4.566;2023-03-02T04:52:36;-0.10;99.90
10388;DHT22;5240;51.128;4.566;2023-03-02T04:55:04;-0.10;99.90
10388;DHT22;5240;51.128;4.566;2023-03-02T04:57:32;-0.10;99.90
10388;DHT22;5240;51.128;4.566;2023-03-02T04:59:59;-0.10;99.90
10388;DHT22;5240;51.128;4.566;2023-03-02T05:02:26;-0.10;99.90
10388;DHT22;5240;51.128;4.566;2023-03-02T05:04:53;-0.10;99.90
10388;DHT22;5240;51.128;4.566;2023-03-02T05:07:20;-0.10;99.90
10388;DHT22;5240;51.128;4.566;2023-03-02T05:09:48;-0.10;99.90
10388;DHT22;5240;51.128;4.566;2023-03-02T05:12:15;-0.10;99.90
10388;DHT22;5240;51.128;4.566;2023-03-02T05:14:43;0.00;99.90
10388;DHT22;5240;51.128;4.566;2023-03-02T05:17:10;0.00;99.90
10388;DHT22;5240;51.128;4.566;2023-03-02T05:19:38;-0.10;99.90
10388;DHT22;5240;51.128;4.566;2023-03-02T05:22:05;-0.10;99.90
10388;DHT22;5240;51.128;4.566;2023-03-02T05:24:32;-0.10;99.90
10388;DHT22;5240;51.128;4.566;2023-03-02T05:27:01;-0.10;99.90
10388;DHT22;5240;51.128;4.566;2023-03-02T05:29:28;-0.10;99.90
10388;DHT22;5240;51.128;4.566;2023-03-02T05:31:55;-0.10;99.90
10388;DHT22;5240;51.128;4.566;2023-03-02T05:34:22;-0.10;99.90
10388;DHT22;5240;51.128;4.566;2023-03-02T05:36:49;-0.10;99.90
10388;DHT22;5240;51.128;4.566;2023-03-02T05:39:17;-0.10;99.90
10388;DHT22;5240;51.128;4.566;2023-03-02T05:41:44;-0.20;99.90
10388;DHT22;5240;51.128;4.566;2023-03-02T05:44:12;-0.10;99.90
10388;DHT22;5240;51.128;4.566;2023-03-02T05:46:39;-0.10;99.90
10388;DHT22;5240;51.128;4.566;2023-03-02T05:49:06;-0.10;99.90
10388;DHT22;5240;51.128;4.566;2023-03-02T05:51:33;-0.20;99.90
10388;DHT22;5240;51.128;4.566;2023-03-02T05:54:01;-0.20;99.90
10388;DHT22;5240;51.128;4.566;2023-03-02T05:56:28;-0.20;99.90
10388;DHT22;5240;51.128;4.566;2023-03-02T05:58:55;-0.10;99.90
10388;DHT22;5240;51.128;4.566;2023-03-02T06:01:23;-0.20;99.90
10388;DHT22;5240;51.128;4.566;2023-03-02T06:03:50;-0.10;99.90
10388;DHT22;5240;51.128;4.566;2023-03-02T06:06:17;-0.20;99.90
10388;DHT22;5240;51.128;4.566;2023-03-02T06:08:44;-0.20;99.90
10388;DHT22;5240;51.128;4.566;2023-03-02T06:11:12;-0.20;99.90
10388;DHT22;5240;51.128;4.566;2023-03-02T06:13:39;-0.30;99.90
10388;DHT22;5240;51.128;4.566;2023-03-02T06:16:06;-0.30;99.90
10388;DHT22;5240;51.128;4.566;2023-03-02T06:18:35;-0.30;99.90
10388;DHT22;5240;51.128;4.566;2023-03-02T06:21:03;-0.40;99.90
10388;DHT22;5240;51.128;4.566;2023-03-02T06:23:30;-0.40;99.90
10388;DHT22;5240;51.128;4.566;2023-03-02T06:25:57;-0.40;99.90
10388;DHT22;5240;51.128;4.566;2023-03-02T06:28:25;-0.30;99.90
10388;DHT22;5240;51.128;4.566;2023-03-02T06:30:52;-0.30;99.90
10388;DHT22;5240;51.128;4.566;2023-03-02T06:33:19;-0.30;99.90
10388;DHT22;5240;51.128;4.566;2023-03-02T06:35:48;-0.30;99.90
10388;DHT22;5240;51.128;4.566;2023-03-02T06:38:15;-0.40;99.90
10388;DHT22;5240;51.128;4.566;2023-03-02T06:40:42;-0.30;99.90
10388;DHT22;5240;51.128;4.566;2023-03-02T06:43:10;-0.30;99.90
10388;DHT22;5240;51.128;4.566;2023-03-02T06:45:37;-0.30;99.90
10388;DHT22;5240;51.128;4.566;2023-03-02T06:48:04;-0.30;99.90
10388;DHT22;5240;51.128;4.566;2023-03-02T06:50:32;-0.30;99.90
10388;DHT22;5240;51.128;4.566;2023-03-02T06:53:01;-0.20;99.90
10388;DHT22;5240;51.128;4.566;2023-03-02T06:55:28;-0.20;99.90
10388;DHT22;5240;51.128;4.566;2023-03-02T06:57:55;-0.10;99.90
10388;DHT22;5240;51.128;4.566;2023-03-02T07:00:22;-0.20;99.90
10388;DHT22;5240;51.128;4.566;2023-03-02T07:02:54;-0.20;99.90
10388;DHT22;5240;51.128;4.566;2023-03-02T07:05:22;-0.10;99.90
10388;DHT22;5240;51.128;4.566;2023-03-02T07:07:49;-0.20;99.90
10388;DHT22;5240;51.128;4.566;2023-03-02T07:10:18;-0.20;99.90
10388;DHT22;5240;51.128;4.566;2023-03-02T07:12:45;-0.10;99.90
10388;DHT22;5240;51.128;4.566;2023-03-02T07:15:13;0.00;99.90
10388;DHT22;5240;51.128;4.566;2023-03-02T07:17:41;0.10;99.90
10388;DHT22;5240;51.128;4.566;2023-03-02T07:20:10;0.20;99.90
10388;DHT22;5240;51.128;4.566;2023-03-02T07:22:38;0.30;99.90
10388;DHT22;5240;51.128;4.566;2023-03-02T07:25:07;0.30;99.90
10388;DHT22;5240;51.128;4.566;2023-03-02T07:27:36;0.40;99.90
10388;DHT22;5240;51.128;4.566;2023-03-02T07:30:04;0.40;99.90
10388;DHT22;5240;51.128;4.566;2023-03-02T07:32:31;0.40;99.90
10388;DHT22;5240;51.128;4.566;2023-03-02T07:34:59;0.50;99.90
10388;DHT22;5240;51.128;4.566;2023-03-02T07:37:26;0.50;99.90
10388;DHT22;5240;51.128;4.566;2023-03-02T07:39:53;0.50;99.90
10388;DHT22;5240;51.128;4.566;2023-03-02T07:42:21;0.60;99.90
10388;DHT22;5240;51.128;4.566;2023-03-02T07:49:55;0.80;99.90
10388;DHT22;5240;51.128;4.566;2023-03-02T07:52:23;1.00;99.90
10388;DHT22;5240;51.128;4.566;2023-03-02T07:54:51;1.20;99.90
10388;DHT22;5240;51.128;4.566;2023-03-02T07:57:18;1.30;99.90
10388;DHT22;5240;51.128;4.566;2023-03-02T07:59:46;1.40;99.90
10388;DHT22;5240;51.128;4.566;2023-03-02T08:02:17;1.50;99.90
10388;DHT22;5240;51.128;4.566;2023-03-02T08:04:46;1.40;99.90
10388;DHT22;5240;51.128;4.566;2023-03-02T08:07:15;1.50;99.90
10388;DHT22;5240;51.128;4.566;2023-03-02T08:09:43;1.70;99.90
10388;DHT22;5240;51.128;4.566;2023-03-02T08:12:10;1.90;99.90
10388;DHT22;5240;51.128;4.566;2023-03-02T08:14:37;2.30;99.90
10388;DHT22;5240;51.128;4.566;2023-03-02T08:17:06;2.60;99.90
10388;DHT22;5240;51.128;4.566;2023-03-02T08:19:33;2.80;99.90
10388;DHT22;5240;51.128;4.566;2023-03-02T08:37:39;3.50;99.90
10388;DHT22;5240;51.128;4.566;2023-03-02T08:40:19;3.60;99.90
10388;DHT22;5240;51.128;4.566;2023-03-02T08:43:38;3.90;99.90
10388;DHT22;5240;51.128;4.566;2023-03-02T08:46:39;4.10;99.90
10388;DHT22;5240;51.128;4.566;2023-03-02T08:49:07;4.10;99.90
10388;DHT22;5240;51.128;4.566;2023-03-02T08:51:35;4.30;99.90
10388;DHT22;5240;51.128;4.566;2023-03-02T08:54:03;4.70;99.90
10388;DHT22;5240;51.128;4.566;2023-03-02T08:56:32;4.80;99.90
10388;DHT22;5240;51.128;4.566;2023-03-02T08:59:01;5.10;99.90
10388;DHT22;5240;51.128;4.566;2023-03-02T09:01:30;5.40;99.90
10388;DHT22;5240;51.128;4.566;2023-03-02T09:03:58;5.60;99.90
10388;DHT22;5240;51.128;4.566;2023-03-02T09:06:26;5.90;99.90
10388;DHT22;5240;51.128;4.566;2023-03-02T09:08:54;6.00;99.90
10388;DHT22;5240;51.128;4.566;2023-03-02T09:11:27;6.20;99.90
10388;DHT22;5240;51.128;4.566;2023-03-02T09:16:37;6.60;99.90
10388;DHT22;5240;51.128;4.566;2023-03-02T09:19:05;6.60;99.90
10388;DHT22;5240;51.128;4.566;2023-03-02T09:21:33;6.70;99.90
10388;DHT22;5240;51.128;4.566;2023-03-02T09:24:01;6.90;99.90
10388;DHT22;5240;51.128;4.566;2023-03-02T09:26:48;6.60;99.90
10388;DHT22;5240;51.128;4.566;2023-03-02T09:29:27;6.60;99.90
10388;DHT22;5240;51.128;4.566;2023-03-02T09:31:56;7.10;99.90
10388;DHT22;5240;51.128;4.566;2023-03-02T10:10:44;9.60;99.90
10388;DHT22;5240;51.128;4.566;2023-03-02T10:13:29;10.20;99.90
10388;DHT22;5240;51.128;4.566;2023-03-02T10:16:22;10.30;99.90
10388;DHT22;5240;51.128;4.566;2023-03-02T10:33:33;11.60;99.90
10388;DHT22;5240;51.128;4.566;2023-03-02T10:36:12;11.50;99.90
10388;DHT22;5240;51.128;4.566;2023-03-02T10:38:50;11.60;99.90
10388;DHT22;5240;51.128;4.566;2023-03-02T10:41:21;11.70;99.90
10388;DHT22;5240;51.128;4.566;2023-03-02T10:44:00;12.20;99.90
10388;DHT22;5240;51.128;4.566;2023-03-02T10:46:44;12.20;99.90
10388;DHT22;5240;51.128;4.566;2023-03-02T10:51:56;9.80;99.90
10388;DHT22;5240;51.128;4.566;2023-03-02T10:54:24;10.20;99.90
10388;DHT22;5240;51.128;4.566;2023-03-02T10:56:55;10.40;99.90
10388;DHT22;5240;51.128;4.566;2023-03-02T10:59:42;9.60;99.90
10388;DHT22;5240;51.128;4.566;2023-03-02T11:04:45;9.30;99.90
10388;DHT22;5240;51.128;4.566;2023-03-02T11:17:36;7.30;99.90
10388;DHT22;5240;51.128;4.566;2023-03-02T11:20:12;7.00;99.90
10388;DHT22;5240;51.128;4.566;2023-03-02T11:22:46;6.90;99.90
10388;DHT22;5240;51.128;4.566;2023-03-02T11:25:22;6.90;99.90
10388;DHT22;5240;51.128;4.566;2023-03-02T11:27:57;7.00;99.90
10388;DHT22;5240;51.128;4.566;2023-03-02T11:30:26;7.10;99.90
10388;DHT22;5240;51.128;4.566;2023-03-02T11:33:03;7.30;99.90
10388;DHT22;5240;51.128;4.566;2023-03-02T11:35:39;7.40;99.90
10388;DHT22;5240;51.128;4.566;2023-03-02T11:38:16;7.30;99.90
10388;DHT22;5240;51.128;4.566;2023-03-02T11:40:46;7.30;99.90
10388;DHT22;5240;51.128;4.566;2023-03-02T11:43:18;7.30;99.90
10388;DHT22;5240;51.128;4.566;2023-03-02T11:46:01;7.10;99.90
10388;DHT22;5240;51.128;4.566;2023-03-02T11:48:34;7.00;99.90
10388;DHT22;5240;51.128;4.566;2023-03-02T11:51:05;6.90;99.90
10388;DHT22;5240;51.128;4.566;2023-03-02T11:53:42;6.90;99.90
10388;DHT22;5240;51.128;4.566;2023-03-02T11:56:11;7.10;99.90
10388;DHT22;5240;51.128;4.566;2023-03-02T11:59:10;7.30;99.90
10388;DHT22;5240;51.128;4.566;2023-03-02T12:01:56;7.40;99.90
10388;DHT22;5240;51.128;4.566;2023-03-02T12:07:34;7.30;99.90
10388;DHT22;5240;51.128;4.566;2023-03-02T12:10:05;7.40;99.90
10388;DHT22;5240;51.128;4.566;2023-03-02T12:12:41;7.20;99.90
10388;DHT22;5240;51.128;4.566;2023-03-02T12:15:35;7.40;99.90
10388;DHT22;5240;51.128;4.566;2023-03-02T12:18:15;7.40;99.90
10388;DHT22;5240;51.128;4.566;2023-03-02T12:20:42;7.40;99.90
10388;DHT22;5240;51.128;4.566;2023-03-02T12:23:22;7.40;99.90
10388;DHT22;5240;51.128;4.566;2023-03-02T12:26:02;7.40;99.90
10388;DHT22;5240;51.128;4.566;2023-03-02T12:28:31;7.40;99.90
10388;DHT22;5240;51.128;4.566;2023-03-02T12:31:10;7.50;99.90
10388;DHT22;5240;51.128;4.566;2023-03-02T12:33:41;7.70;99.90
10388;DHT22;5240;51.128;4.566;2023-03-02T12:36:26;7.70;99.90
10388;DHT22;5240;51.128;4.566;2023-03-02T12:46:58;8.00;99.90
10388;DHT22;5240;51.128;4.566;2023-03-02T12:49:45;7.90;99.90
10388;DHT22;5240;51.128;4.566;2023-03-02T12:52:30;8.00;99.90
10388;DHT22;5240;51.128;4.566;2023-03-02T12:55:13;8.00;99.90
10388;DHT22;5240;51.128;4.566;2023-03-02T12:57:47;8.10;99.90
10388;DHT22;5240;51.128;4.566;2023-03-02T13:00:16;8.10;99.90
10388;DHT22;5240;51.128;4.566;2023-03-02T13:02:47;8.20;99.90
10388;DHT22;5240;51.128;4.566;2023-03-02T13:05:20;8.20;99.90
10388;DHT22;5240;51.128;4.566;2023-03-02T13:07:55;8.30;99.90
10388;DHT22;5240;51.128;4.566;2023-03-02T13:10:32;8.30;99.90
10388;DHT22;5240;51.128;4.566;2023-03-02T13:13:02;8.40;99.90
10388;DHT22;5240;51.128;4.566;2023-03-02T13:15:47;8.30;99.90
10388;DHT22;5240;51.128;4.566;2023-03-02T13:18:16;8.30;99.90
10388;DHT22;5240;51.128;4.566;2023-03-02T13:20:44;8.40;99.90
10388;DHT22;5240;51.128;4.566;2023-03-02T13:23:12;8.50;99.90
10388;DHT22;5240;51.128;4.566;2023-03-02T13:25:47;8.50;99.90
10388;DHT22;5240;51.128;4.566;2023-03-02T13:28:27;8.60;99.90
10388;DHT22;5240;51.128;4.566;2023-03-02T13:30:58;8.60;99.90
10388;DHT22;5240;51.128;4.566;2023-03-02T13:33:29;8.60;99.90
10388;DHT22;5240;51.128;4.566;2023-03-02T13:35:57;8.60;99.90
10388;DHT22;5240;51.128;4.566;2023-03-02T13:38:29;8.60;99.90
10388;DHT22;5240;51.128;4.566;2023-03-02T13:41:20;8.70;99.90
10388;DHT22;5240;51.128;4.566;2023-03-02T13:43:48;8.80;99.90
10388;DHT22;5240;51.128;4.566;2023-03-02T13:46:32;8.80;99.90
10388;DHT22;5240;51.128;4.566;2023-03-02T13:49:03;8.80;99.90
10388;DHT22;5240;51.128;4.566;2023-03-02T13:51:32;8.90;99.90
10388;DHT22;5240;51.128;4.566;2023-03-02T13:54:02;8.90;99.90
10388;DHT22;5240;51.128;4.566;2023-03-02T13:56:32;8.90;99.90
10388;DHT22;5240;51.128;4.566;2023-03-02T13:59:02;8.90;99.90
10388;DHT22;5240;51.128;4.566;2023-03-02T14:01:30;9.00;99.90
10388;DHT22;5240;51.128;4.566;2023-03-02T14:04:28;9.00;99.90
10388;DHT22;5240;51.128;4.566;2023-03-02T14:07:09;9.00;99.90
10388;DHT22;5240;51.128;4.566;2023-03-02T14:09:52;9.00;99.90
10388;DHT22;5240;51.128;4.566;2023-03-02T14:12:37;9.00;99.90
10388;DHT22;5240;51.128;4.566;2023-03-02T14:15:25;9.10;99.90
10388;DHT22;5240;51.128;4.566;2023-03-02T14:17:52;9.10;99.90
10388;DHT22;5240;51.128;4.566;2023-03-02T14:20:25;9.10;99.90
10388;DHT22;5240;51.128;4.566;2023-03-02T14:22:55;9.10;99.90
10388;DHT22;5240;51.128;4.566;2023-03-02T14:30:32;9.20;99.90
10388;DHT22;5240;51.128;4.566;2023-03-02T14:32:59;9.20;99.90
10388;DHT22;5240;51.128;4.566;2023-03-02T14:35:31;9.20;99.90
10388;DHT22;5240;51.128;4.566;2023-03-02T14:37:59;9.30;99.90
10388;DHT22;5240;51.128;4.566;2023-03-02T14:40:28;9.30;99.90
10388;DHT22;5240;51.128;4.566;2023-03-02T14:42:57;9.30;99.90
10388;DHT22;5240;51.128;4.566;2023-03-02T14:45:31;9.40;99.90
10388;DHT22;5240;51.128;4.566;2023-03-02T14:50:38;9.40;99.90
10388;DHT22;5240;51.128;4.566;2023-03-02T14:53:13;9.40;99.90
10388;DHT22;5240;51.128;4.566;2023-03-02T14:55:42;9.50;99.90
10388;DHT22;5240;51.128;4.566;2023-03-02T14:58:12;9.40;99.90
10388;DHT22;5240;51.128;4.566;2023-03-02T15:00:40;9.40;99.90
10388;DHT22;5240;51.128;4.566;2023-03-02T15:03:12;9.40;99.90
10388;DHT22;5240;51.128;4.566;2023-03-02T15:05:41;9.40;99.90
10388;DHT22;5240;51.128;4.566;2023-03-02T15:08:13;9.40;99.90
10388;DHT22;5240;51.128;4.566;2023-03-02T15:10:41;9.40;99.90
10388;DHT22;5240;51.128;4.566;2023-03-02T15:13:08;9.40;99.90
10388;DHT22;5240;51.128;4.566;2023-03-02T15:15:36;9.30;99.90
10388;DHT22;5240;51.128;4.566;2023-03-02T15:18:04;9.20;99.90
10388;DHT22;5240;51.128;4.566;2023-03-02T15:20:31;9.20;99.90
10388;DHT22;5240;51.128;4.566;2023-03-02T15:23:00;9.20;99.90
10388;DHT22;5240;51.128;4.566;2023-03-02T15:25:27;9.20;99.90
10388;DHT22;5240;51.128;4.566;2023-03-02T15:27:55;9.20;99.90
10388;DHT22;5240;51.128;4.566;2023-03-02T15:30:23;9.20;99.90
10388;DHT22;5240;51.128;4.566;2023-03-02T15:32:55;9.20;99.90
10388;DHT22;5240;51.128;4.566;2023-03-02T15:35:24;9.20;99.90
10388;DHT22;5240;51.128;4.566;2023-03-02T15:37:52;9.20;99.90
10388;DHT22;5240;51.128;4.566;2023-03-02T15:40:21;9.20;99.90
10388;DHT22;5240;51.128;4.566;2023-03-02T15:42:49;9.10;99.90
10388;DHT22;5240;51.128;4.566;2023-03-02T15:45:17;9.10;99.90
10388;DHT22;5240;51.128;4.566;2023-03-02T15:47:47;9.10;99.90
10388;DHT22;5240;51.128;4.566;2023-03-02T15:50:14;9.00;99.90
10388;DHT22;5240;51.128;4.566;2023-03-02T15:52:41;9.00;99.90
10388;DHT22;5240;51.128;4.566;2023-03-02T15:55:08;8.90;99.90
10388;DHT22;5240;51.128;4.566;2023-03-02T15:57:38;8.90;99.90
10388;DHT22;5240;51.128;4.566;2023-03-02T16:00:06;8.90;99.90
10388;DHT22;5240;51.128;4.566;2023-03-02T16:02:34;8.90;99.90
10388;DHT22;5240;51.128;4.566;2023-03-02T16:05:01;8.90;99.90
10388;DHT22;5240;51.128;4.566;2023-03-02T16:07:29;8.90;99.90
10388;DHT22;5240;51.128;4.566;2023-03-02T16:09:56;8.80;99.90
10388;DHT22;5240;51.128;4.566;2023-03-02T16:12:24;8.90;99.90
10388;DHT22;5240;51.128;4.566;2023-03-02T16:14:52;8.80;99.90
10388;DHT22;5240;51.128;4.566;2023-03-02T16:17:19;8.80;99.90
10388;DHT22;5240;51.128;4.566;2023-03-02T16:19:47;8.80;99.90
10388;DHT22;5240;51.128;4.566;2023-03-02T16:22:14;8.80;99.90
10388;DHT22;5240;51.128;4.566;2023-03-02T16:24:41;8.80;99.90
10388;DHT22;5240;51.128;4.566;2023-03-02T16:27:08;8.70;99.90
10388;DHT22;5240;51.128;4.566;2023-03-02T16:29:35;8.70;99.90
10388;DHT22;5240;51.128;4.566;2023-03-02T16:32:04;8.70;99.90
10388;DHT22;5240;51.128;4.566;2023-03-02T16:34:33;8.70;99.90
10388;DHT22;5240;51.128;4.566;2023-03-02T16:37:00;8.70;99.90
10388;DHT22;5240;51.128;4.566;2023-03-02T16:39:27;8.70;99.90
10388;DHT22;5240;51.128;4.566;2023-03-02T16:41:55;8.60;99.90
10388;DHT22;5240;51.128;4.566;2023-03-02T16:44:22;8.60;99.90
10388;DHT22;5240;51.128;4.566;2023-03-02T16:46:50;8.60;99.90
10388;DHT22;5240;51.128;4.566;2023-03-02T16:49:19;8.50;99.90
10388;DHT22;5240;51.128;4.566;2023-03-02T16:51:46;8.50;99.90
10388;DHT22;5240;51.128;4.566;2023-03-02T16:54:16;8.40;99.90
10388;DHT22;5240;51.128;4.566;2023-03-02T16:56:47;8.40;99.90
10388;DHT22;5240;51.128;4.566;2023-03-02T16:59:17;8.30;99.90
10388;DHT22;5240;51.128;4.566;2023-03-02T17:01:44;8.40;99.90
10388;DHT22;5240;51.128;4.566;2023-03-02T17:04:11;8.30;99.90
10388;DHT22;5240;51.128;4.566;2023-03-02T17:06:43;8.30;99.90
10388;DHT22;5240;51.128;4.566;2023-03-02T17:09:12;8.20;99.90
10388;DHT22;5240;51.128;4.566;2023-03-02T17:11:39;8.20;99.90
10388;DHT22;5240;51.128;4.566;2023-03-02T17:14:06;8.10;99.90
10388;DHT22;5240;51.128;4.566;2023-03-02T17:16:33;8.20;99.90
10388;DHT22;5240;51.128;4.566;2023-03-02T17:19:00;8.10;99.90
10388;DHT22;5240;51.128;4.566;2023-03-02T17:21:27;8.10;99.90
10388;DHT22;5240;51.128;4.566;2023-03-02T17:23:55;8.00;99.90
10388;DHT22;5240;51.128;4.566;2023-03-02T17:26:23;8.00;99.90
10388;DHT22;5240;51.128;4.566;2023-03-02T17:28:50;7.90;99.90
10388;DHT22;5240;51.128;4.566;2023-03-02T17:31:17;7.90;99.90
10388;DHT22;5240;51.128;4.566;2023-03-02T17:33:44;7.80;99.90
10388;DHT22;5240;51.128;4.566;2023-03-02T17:36:11;7.80;99.90
10388;DHT22;5240;51.128;4.566;2023-03-02T17:38:40;7.70;99.90
10388;DHT22;5240;51.128;4.566;2023-03-02T17:41:09;7.60;99.90
10388;DHT22;5240;51.128;4.566;2023-03-02T17:43:40;7.60;99.90
10388;DHT22;5240;51.128;4.566;2023-03-02T17:46:09;7.50;99.90
10388;DHT22;5240;51.128;4.566;2023-03-02T17:48:37;7.50;99.90
10388;DHT22;5240;51.128;4.566;2023-03-02T17:51:04;7.40;99.90
10388;DHT22;5240;51.128;4.566;2023-03-02T17:53:31;7.40;99.90
10388;DHT22;5240;51.128;4.566;2023-03-02T17:55:58;7.40;99.90
10388;DHT22;5240;51.128;4.566;2023-03-02T17:58:27;7.30;99.90
10388;DHT22;5240;51.128;4.566;2023-03-02T18:00:54;7.20;99.90
10388;DHT22;5240;51.128;4.566;2023-03-02T18:03:21;7.20;99.90
10388;DHT22;5240;51.128;4.566;2023-03-02T18:05:48;7.20;99.90
10388;DHT22;5240;51.128;4.566;2023-03-02T18:08:15;7.20;99.90